Herman, Pennsylvania
Current Conditions -  °F | °C
As of 7:15 AM on Friday 28 Nov 2014 (Local Time) from KBTP Reporting Station
Overcast Overcast  
Wind Chill: 16°   Ceiling: 3500
Heat Index: 25°   Visibility: 10mi
Dew Point: 16°   Wind: 8mph
Humidity: 69%   Direction: 280°W
Pressure: 30.29"   Gusts: 17mph
Location:  40.83°N, 79.81°W
Report Text: KBTP 281215Z AUTO 28007G15KT 250V320 10SM SCT025 BKN035 OVC044 M04/M09 A3029 RMK AO1
Loading
Personal Weather Stations






























Interactive Weather Map New forecast layout! Learn more

10-Day Weather Forecast

Advertisements
Track Severe Weather on mobile